createdAt,value
2023-01-17T00:03:00.987Z,6.30
2023-01-17T00:08:24.556Z,6.50
2023-01-17T00:13:30.006Z,7.07
2023-01-17T00:18:35.453Z,6.77
2023-01-17T00:23:58.835Z,6.63
2023-01-17T00:29:03.826Z,6.83
2023-01-17T00:34:08.593Z,6.83
2023-01-17T00:39:13.546Z,8.90
2023-01-17T00:44:36.763Z,7.97
2023-01-17T00:50:00.373Z,8.53
2023-01-17T00:55:24.717Z,9.40
2023-01-17T01:00:48.000Z,7.57
2023-01-17T01:06:11.427Z,8.60
2023-01-17T01:11:37.733Z,8.53
2023-01-17T01:17:01.330Z,8.77
2023-01-17T01:22:24.565Z,9.33
2023-01-17T01:27:48.023Z,8.90
2023-01-17T01:33:11.717Z,9.10
2023-01-17T01:38:18.575Z,9.80
2023-01-17T01:43:43.695Z,9.90
2023-01-17T01:48:52.116Z,9.63
2023-01-17T01:54:00.542Z,10.70
2023-01-17T01:59:09.087Z,11.77
2023-01-17T02:04:15.290Z,12.50
2023-01-17T02:09:21.827Z,12.77
2023-01-17T02:14:27.337Z,12.47
2023-01-17T02:19:52.185Z,12.80
2023-01-17T02:25:32.963Z,12.60
2023-01-17T02:30:50.349Z,13.30
2023-01-17T02:36:16.714Z,13.17
2023-01-17T02:41:28.005Z,13.17
2023-01-17T02:46:33.468Z,14.33
2023-01-17T02:51:47.502Z,12.20
2023-01-17T02:57:29.091Z,13.47
2023-01-17T03:02:43.407Z,13.83
2023-01-17T03:07:50.557Z,14.53
2023-01-17T03:13:01.247Z,12.53
2023-01-17T03:18:09.658Z,12.93
2023-01-17T03:23:15.175Z,13.33
2023-01-17T03:28:20.700Z,13.20
2023-01-17T03:33:26.754Z,11.77
2023-01-17T03:38:32.218Z,12.53
2023-01-17T03:43:37.607Z,11.40
2023-01-17T03:48:43.405Z,12.87
2023-01-17T03:53:50.092Z,10.70
2023-01-17T03:58:57.226Z,11.07
2023-01-17T04:04:02.755Z,9.93
2023-01-17T04:09:08.290Z,10.40
2023-01-17T04:14:13.679Z,11.03
2023-01-17T04:19:19.474Z,10.70
2023-01-17T04:24:24.925Z,10.10
2023-01-17T04:29:30.445Z,9.77
2023-01-17T04:34:35.983Z,11.17
2023-01-17T04:39:41.490Z,10.33
2023-01-17T04:44:46.943Z,11.80
2023-01-17T04:49:52.338Z,9.50
2023-01-17T04:54:57.771Z,11.20
2023-01-17T05:00:03.331Z,9.87
2023-01-17T05:05:10.151Z,10.50
2023-01-17T05:10:15.689Z,10.77
2023-01-17T05:15:21.291Z,10.37
2023-01-17T05:20:28.485Z,9.30
2023-01-17T05:25:34.698Z,9.20
2023-01-17T05:30:40.349Z,9.40
2023-01-17T05:35:45.826Z,9.13
2023-01-17T05:40:51.634Z,8.77
2023-01-17T05:45:57.255Z,8.47
2023-01-17T05:51:02.681Z,8.17
2023-01-17T05:56:08.954Z,7.67
2023-01-17T06:01:14.510Z,8.57
2023-01-17T06:06:21.067Z,7.37
2023-01-17T06:11:26.563Z,7.30
2023-01-17T06:16:31.954Z,7.10
2023-01-17T06:21:37.516Z,7.57
2023-01-17T06:26:44.854Z,6.70
2023-01-17T06:31:50.378Z,6.27
2023-01-17T06:36:55.885Z,5.90
2023-01-17T06:42:01.412Z,6.07
2023-01-17T06:47:06.841Z,6.00
2023-01-17T06:52:12.313Z,5.47
2023-01-17T06:57:17.749Z,5.13
2023-01-17T07:02:23.230Z,5.37
2023-01-17T07:07:28.835Z,4.43
2023-01-17T07:12:34.463Z,4.17
2023-01-17T07:17:40.458Z,4.93
2023-01-17T07:22:48.636Z,4.13
2023-01-17T07:27:58.069Z,4.10
2023-01-17T07:33:04.143Z,3.30
2023-01-17T07:38:11.884Z,3.20
2023-01-17T07:43:17.448Z,3.13
2023-01-17T07:48:25.005Z,2.63
2023-01-17T07:53:33.524Z,2.72
2023-01-17T07:58:39.044Z,2.33
2023-01-17T08:03:45.590Z,2.20
2023-01-17T08:08:51.504Z,2.27
2023-01-17T08:14:00.263Z,2.00
2023-01-17T08:19:05.720Z,1.83
2023-01-17T08:24:17.099Z,1.80
2023-01-17T08:29:23.006Z,2.17
2023-01-17T08:34:28.614Z,1.93
2023-01-17T08:39:34.306Z,2.17
2023-01-17T08:44:39.996Z,1.70
2023-01-17T08:49:45.541Z,1.40
2023-01-17T08:54:53.255Z,2.00
2023-01-17T08:59:59.299Z,1.23
2023-01-17T09:05:04.814Z,1.40
2023-01-17T09:10:11.384Z,1.50
2023-01-17T09:15:18.640Z,0.93
2023-01-17T09:20:24.994Z,1.37
2023-01-17T09:25:30.440Z,1.30
2023-01-17T09:30:35.941Z,1.50
2023-01-17T09:35:41.739Z,1.27
2023-01-17T09:40:49.571Z,1.50
2023-01-17T09:45:55.398Z,1.67
2023-01-17T09:51:03.836Z,1.23
2023-01-17T09:56:18.727Z,1.30
2023-01-17T10:01:36.289Z,1.60
2023-01-17T10:06:44.754Z,1.80
2023-01-17T10:12:09.471Z,1.43
2023-01-17T10:17:20.862Z,1.60
2023-01-17T10:22:50.609Z,1.53
2023-01-17T10:28:23.127Z,1.50
2023-01-17T10:33:34.645Z,1.23
2023-01-17T10:38:43.343Z,1.70
2023-01-17T10:44:00.625Z,1.20
2023-01-17T10:49:06.273Z,0.70
2023-01-17T10:54:40.688Z,0.70
2023-01-17T10:59:46.272Z,0.80
2023-01-17T11:04:54.722Z,0.70
2023-01-17T11:10:00.690Z,0.60
2023-01-17T11:15:15.859Z,0.80
2023-01-17T11:20:36.391Z,0.70
2023-01-17T11:25:44.138Z,0.70
2023-01-17T11:31:05.171Z,0.60
2023-01-17T11:36:19.587Z,0.63
2023-01-17T11:41:28.317Z,0.70
2023-01-17T11:46:33.921Z,0.40
2023-01-17T11:51:43.718Z,0.40
2023-01-17T11:56:50.707Z,0.40
2023-01-17T12:02:34.169Z,0.40
2023-01-17T12:07:42.595Z,0.30
2023-01-17T12:13:26.966Z,0.40
2023-01-17T12:18:38.089Z,0.40
2023-01-17T12:24:04.698Z,0.20
2023-01-17T12:29:32.865Z,0.40
2023-01-17T12:34:57.969Z,0.43
2023-01-17T12:40:22.374Z,0.40
2023-01-17T12:45:32.213Z,0.40
2023-01-17T12:50:55.763Z,0.40
2023-01-17T12:56:04.471Z,0.37
2023-01-17T13:01:21.922Z,0.30
2023-01-17T13:06:39.333Z,0.30
2023-01-17T13:11:49.392Z,0.50
2023-01-17T13:17:17.604Z,0.13
2023-01-17T13:22:26.253Z,0.33
2023-01-17T13:27:47.504Z,0.30
2023-01-17T13:33:15.540Z,0.40
2023-01-17T13:38:39.147Z,0.50
2023-01-17T13:43:48.292Z,0.47
2023-01-17T13:48:56.720Z,0.30
2023-01-17T13:54:03.517Z,0.40
2023-01-17T13:59:12.365Z,0.50
2023-01-17T14:04:17.907Z,0.50
2023-01-17T14:09:43.125Z,0.40
2023-01-17T14:14:52.149Z,0.50
2023-01-17T14:20:01.362Z,0.40
2023-01-17T14:25:19.127Z,0.40
2023-01-17T14:30:37.176Z,0.80
2023-01-17T14:35:51.738Z,0.50
2023-01-17T14:41:03.121Z,0.40
2023-01-17T14:46:11.737Z,0.43
2023-01-17T14:51:24.984Z,0.40
2023-01-17T14:56:31.974Z,0.50
2023-01-17T15:01:38.215Z,0.50
2023-01-17T15:06:46.332Z,0.40
2023-01-17T15:11:54.026Z,0.40
2023-01-17T15:17:12.907Z,0.90
2023-01-17T15:22:20.516Z,0.60
2023-01-17T15:27:26.925Z,0.60
2023-01-17T15:32:32.692Z,0.63
2023-01-17T15:37:40.093Z,0.70
2023-01-17T15:42:56.158Z,0.70
2023-01-17T15:48:40.647Z,0.70
2023-01-17T15:53:46.142Z,0.63
2023-01-17T15:58:52.135Z,0.70
2023-01-17T16:03:58.621Z,0.83
2023-01-17T16:09:04.910Z,0.90
2023-01-17T16:14:10.469Z,1.40
2023-01-17T16:19:16.005Z,1.07
2023-01-17T16:24:21.508Z,1.80
2023-01-17T16:29:27.336Z,1.23
2023-01-17T16:34:32.978Z,1.27
2023-01-17T16:39:38.608Z,1.07
2023-01-17T16:44:44.056Z,0.90
2023-01-17T16:49:49.521Z,1.10
2023-01-17T16:54:56.093Z,1.00
2023-01-17T17:00:01.622Z,1.33
2023-01-17T17:05:08.681Z,1.00
2023-01-17T17:10:17.683Z,1.33
2023-01-17T17:15:23.151Z,1.83
2023-01-17T17:20:28.742Z,1.90
2023-01-17T17:25:34.337Z,1.53
2023-01-17T17:30:39.799Z,1.60
2023-01-17T17:35:45.309Z,1.60
2023-01-17T17:40:50.795Z,1.50
2023-01-17T17:45:56.381Z,1.97
2023-01-17T17:51:02.974Z,1.53
2023-01-17T17:56:09.747Z,1.63
2023-01-17T18:01:15.410Z,1.57
2023-01-17T18:06:22.013Z,1.57
2023-01-17T18:11:29.250Z,1.63
2023-01-17T18:16:36.685Z,2.03
2023-01-17T18:21:43.176Z,1.97
2023-01-17T18:26:51.233Z,1.50
2023-01-17T18:31:57.565Z,1.20
2023-01-17T18:37:04.384Z,1.70
2023-01-17T18:42:11.394Z,1.67
2023-01-17T18:47:16.768Z,1.40
2023-01-17T18:52:23.668Z,1.73
2023-01-17T18:57:29.127Z,2.00
2023-01-17T19:02:34.512Z,1.83
2023-01-17T19:07:39.956Z,1.63
2023-01-17T19:12:45.734Z,1.57
2023-01-17T19:17:51.117Z,1.93
2023-01-17T19:22:56.544Z,1.50
2023-01-17T19:28:02.069Z,2.17
2023-01-17T19:33:08.047Z,2.53
2023-01-17T19:38:13.579Z,2.30
2023-01-17T19:43:20.880Z,3.57
2023-01-17T19:48:27.766Z,2.40
2023-01-17T19:53:33.292Z,1.97
2023-01-17T19:58:40.062Z,1.70
2023-01-17T20:03:46.777Z,1.90
2023-01-17T20:08:52.682Z,2.40
2023-01-17T20:14:00.590Z,2.10
2023-01-17T20:19:06.284Z,1.63
2023-01-17T20:24:13.718Z,1.90
2023-01-17T20:29:19.671Z,1.90
2023-01-17T20:34:25.918Z,2.40
2023-01-17T20:39:33.407Z,2.13
2023-01-17T20:44:38.949Z,1.77
2023-01-17T20:49:44.553Z,2.60
2023-01-17T20:54:51.860Z,2.47
2023-01-17T20:59:57.336Z,2.37
2023-01-17T21:05:03.836Z,2.00
2023-01-17T21:10:09.940Z,1.90
2023-01-17T21:15:17.145Z,2.80
2023-01-17T21:20:22.628Z,1.90
2023-01-17T21:25:28.387Z,2.30
2023-01-17T21:30:34.579Z,1.67
2023-01-17T21:35:40.821Z,2.57
2023-01-17T21:40:47.069Z,2.60
2023-01-17T21:45:53.629Z,2.60
2023-01-17T21:51:04.668Z,1.90
2023-01-17T21:56:30.982Z,2.67
2023-01-17T22:01:36.566Z,2.40
2023-01-17T22:06:42.276Z,2.30
2023-01-17T22:11:47.717Z,2.37
2023-01-17T22:16:53.203Z,2.30
2023-01-17T22:21:58.714Z,2.70
2023-01-17T22:27:04.173Z,2.00
2023-01-17T22:32:09.646Z,1.80
2023-01-17T22:37:15.605Z,2.20
2023-01-17T22:42:21.250Z,2.50
2023-01-17T22:47:26.718Z,2.27
2023-01-17T22:52:33.068Z,2.50
2023-01-17T22:57:38.659Z,2.63
2023-01-17T23:02:44.523Z,2.40
2023-01-17T23:07:52.042Z,2.50
2023-01-17T23:12:57.964Z,2.20
2023-01-17T23:18:21.651Z,2.67
2023-01-17T23:23:27.044Z,2.90
2023-01-17T23:28:32.558Z,2.70
2023-01-17T23:33:38.016Z,2.63
2023-01-17T23:38:44.255Z,2.47
2023-01-17T23:43:54.932Z,2.70
2023-01-17T23:49:00.632Z,3.00
2023-01-17T23:54:06.147Z,2.50
2023-01-17T23:59:11.683Z,3.70
